Time,TemperatureF,DewpointF,PressureIn,WindDirection,WindDirectionDegrees,WindSpeedMPH,WindSpeedGustMPH,Humidity,HourlyPrecipIn,Conditions,Clouds,dailyrainin,SoftwareType,DateUTC
2013-02-16 00:09:00,22.8,18.0,30.13,WNW,300,0.0,0.0,81,0.00,,,0.00,weatherlink.com 1.10,2013-02-16 05:09:00,
2013-02-16 00:24:00,22.4,18.0,30.13,WNW,300,0.0,0.0,83,0.00,,,0.00,weatherlink.com 1.10,2013-02-16 05:24:00,
2013-02-16 00:39:00,22.2,19.0,30.12,WNW,300,0.0,0.0,86,0.00,,,0.00,weatherlink.com 1.10,2013-02-16 05:39:00,
2013-02-16 00:54:00,22.2,19.0,30.12,WNW,300,0.0,0.0,87,0.00,,,0.00,weatherlink.com 1.10,2013-02-16 05:54:00,
2013-02-16 01:09:00,22.2,19.0,30.12,WNW,300,0.0,0.0,88,0.00,,,0.00,weatherlink.com 1.10,2013-02-16 06:09:00,
2013-02-16 01:24:00,22.3,19.0,30.12,WNW,300,0.0,0.0,88,0.00,,,0.00,weatherlink.com 1.10,2013-02-16 06:24:00,
2013-02-16 01:39:00,22.4,19.0,30.12,WNW,300,0.0,0.0,88,0.00,,,0.00,weatherlink.com 1.10,2013-02-16 06:39:00,
2013-02-16 01:54:00,22.2,19.0,30.12,WNW,300,0.0,0.0,88,0.00,,,0.00,weatherlink.com 1.10,2013-02-16 06:54:00,
2013-02-16 02:09:00,22.4,20.0,30.11,WNW,300,0.0,0.0,89,0.00,,,0.00,weatherlink.com 1.10,2013-02-16 07:09:00,
2013-02-16 02:24:00,22.5,20.0,30.11,WNW,300,0.0,0.0,88,0.00,,,0.00,weatherlink.com 1.10,2013-02-16 07:24:00,
2013-02-16 02:39:00,22.4,19.0,30.11,WNW,300,0.0,0.0,88,0.00,,,0.00,weatherlink.com 1.10,2013-02-16 07:39:00,
2013-02-16 02:54:00,22.3,19.0,30.11,WNW,300,0.0,0.0,88,0.00,,,0.00,weatherlink.com 1.10,2013-02-16 07:54:00,
2013-02-16 03:09:00,22.4,19.0,30.10,WNW,300,0.0,0.0,87,0.00,,,0.00,weatherlink.com 1.10,2013-02-16 08:09:00,
2013-02-16 03:24:00,22.4,19.0,30.10,WNW,300,0.0,0.0,86,0.00,,,0.00,weatherlink.com 1.10,2013-02-16 08:24:00,
2013-02-16 03:39:00,22.5,19.0,30.09,WNW,300,0.0,0.0,86,0.00,,,0.00,weatherlink.com 1.10,2013-02-16 08:39:00,
2013-02-16 03:54:00,22.5,19.0,30.09,WNW,300,0.0,0.0,86,0.00,,,0.00,weatherlink.com 1.10,2013-02-16 08:54:00,
2013-02-16 04:09:00,23.1,20.0,30.09,WNW,300,0.0,3.0,87,0.00,,,0.00,weatherlink.com 1.10,2013-02-16 09:09:00,
2013-02-16 04:24:00,23.6,20.0,30.09,WNW,300,0.0,3.0,86,0.00,,,0.00,weatherlink.com 1.10,2013-02-16 09:24:00,
2013-02-16 04:40:00,23.6,20.0,30.09,SW,232,0.0,5.0,87,0.00,,,0.00,weatherlink.com 1.10,2013-02-16 09:40:00,
2013-02-16 04:54:00,23.3,20.0,30.08,WSW,251,1.0,3.0,88,0.00,,,0.00,weatherlink.com 1.10,2013-02-16 09:54:00,
2013-02-16 05:10:00,23.0,20.0,30.08,SSW,205,0.0,2.0,89,0.00,,,0.00,weatherlink.com 1.10,2013-02-16 10:10:00,
2013-02-16 05:25:00,22.8,20.0,30.08,SSW,205,0.0,1.0,89,0.00,,,0.00,weatherlink.com 1.10,2013-02-16 10:25:00,
2013-02-16 05:39:00,22.8,20.0,30.08,West,267,0.0,3.0,90,0.00,,,0.00,weatherlink.com 1.10,2013-02-16 10:39:00,
2013-02-16 05:54:00,22.7,20.0,30.08,West,265,1.0,4.0,89,0.00,,,0.00,weatherlink.com 1.10,2013-02-16 10:54:00,
2013-02-16 06:09:00,22.5,20.0,30.07,WNW,286,0.0,2.0,89,0.00,,,0.00,weatherlink.com 1.10,2013-02-16 11:09:00,
2013-02-16 06:24:00,22.3,20.0,30.07,WNW,286,0.0,1.0,89,0.00,,,0.00,weatherlink.com 1.10,2013-02-16 11:24:00,
2013-02-16 06:40:00,22.2,20.0,30.07,West,277,0.0,5.0,90,0.00,,,0.00,weatherlink.com 1.10,2013-02-16 11:40:00,
2013-02-16 06:54:00,22.2,20.0,30.07,WNW,301,0.0,4.0,89,0.00,,,0.00,weatherlink.com 1.10,2013-02-16 11:54:00,
2013-02-16 07:09:00,22.1,19.0,30.07,West,279,0.0,4.0,87,0.00,,,0.00,weatherlink.com 1.10,2013-02-16 12:09:00,
2013-02-16 07:24:00,21.8,18.0,30.07,WNW,303,1.0,6.0,86,0.00,,,0.00,weatherlink.com 1.10,2013-02-16 12:24:00,
2013-02-16 07:40:00,21.8,19.0,30.08,WNW,286,1.0,7.0,87,0.00,,,0.00,weatherlink.com 1.10,2013-02-16 12:40:00,
2013-02-16 07:55:00,22.0,19.0,30.08,WNW,298,4.0,6.0,88,0.00,,,0.00,weatherlink.com 1.10,2013-02-16 12:55:00,
2013-02-16 08:10:00,22.3,20.0,30.08,WNW,295,3.0,11.0,90,0.00,,,0.00,weatherlink.com 1.10,2013-02-16 13:10:00,
2013-02-16 08:25:00,22.3,20.0,30.08,WNW,292,4.0,8.0,91,0.00,,,0.00,weatherlink.com 1.10,2013-02-16 13:25:00,
2013-02-16 08:40:00,21.8,20.0,30.09,West,275,5.0,17.0,91,0.00,,,0.00,weatherlink.com 1.10,2013-02-16 13:40:00,
2013-02-16 08:55:00,21.1,18.0,30.09,WNW,297,10.0,14.0,89,0.00,,,0.00,weatherlink.com 1.10,2013-02-16 13:55:00,
2013-02-16 09:10:00,20.6,17.0,30.09,NW,319,6.0,11.0,87,0.00,,,0.00,weatherlink.com 1.10,2013-02-16 14:10:00,
2013-02-16 09:25:00,22.0,19.0,30.09,NW,311,10.0,15.0,86,0.00,,,0.00,weatherlink.com 1.10,2013-02-16 14:25:00,
2013-02-16 09:40:00,22.2,18.0,30.09,NW,311,7.0,17.0,83,0.00,,,0.00,weatherlink.com 1.10,2013-02-16 14:40:00,
2013-02-16 09:55:00,22.4,17.0,30.09,WNW,297,8.0,15.0,81,0.00,,,0.00,weatherlink.com 1.10,2013-02-16 14:55:00,
2013-02-16 10:10:00,22.5,17.0,30.09,WNW,298,14.0,16.0,78,0.00,,,0.00,weatherlink.com 1.10,2013-02-16 15:10:00,
2013-02-16 10:25:00,23.1,17.0,30.09,WNW,291,6.0,8.0,76,0.00,,,0.00,weatherlink.com 1.10,2013-02-16 15:25:00,
2013-02-16 10:40:00,23.1,17.0,30.09,West,275,4.0,13.0,76,0.00,,,0.00,weatherlink.com 1.10,2013-02-16 15:40:00,
2013-02-16 10:55:00,22.8,17.0,30.09,West,280,5.0,15.0,77,0.00,,,0.00,weatherlink.com 1.10,2013-02-16 15:55:00,
2013-02-16 11:10:00,22.3,16.0,30.09,WNW,301,9.0,17.0,77,0.00,,,0.00,weatherlink.com 1.10,2013-02-16 16:10:00,
2013-02-16 11:25:00,22.6,18.0,30.09,WNW,290,4.0,11.0,81,0.00,,,0.00,weatherlink.com 1.10,2013-02-16 16:25:00,
2013-02-16 11:40:00,22.7,17.0,30.09,WNW,293,7.0,13.0,78,0.00,,,0.00,weatherlink.com 1.10,2013-02-16 16:40:00,
2013-02-16 11:56:00,23.9,17.0,30.09,SW,234,9.0,14.0,75,0.00,,,0.00,weatherlink.com 1.10,2013-02-16 16:56:00,
2013-02-16 12:10:00,23.1,17.0,30.08,West,274,3.0,14.0,76,0.00,,,0.00,weatherlink.com 1.10,2013-02-16 17:10:00,
2013-02-16 12:25:00,22.0,18.0,30.09,West,273,8.0,18.0,83,0.00,,,0.00,weatherlink.com 1.10,2013-02-16 17:25:00,
2013-02-16 12:41:00,21.9,19.0,30.08,West,268,6.0,15.0,88,0.00,,,0.00,weatherlink.com 1.10,2013-02-16 17:41:00,
2013-02-16 12:55:00,22.2,16.0,30.08,NW,304,9.0,18.0,78,0.00,,,0.00,weatherlink.com 1.10,2013-02-16 17:55:00,
2013-02-16 13:10:00,21.5,16.0,30.08,NW,322,17.0,21.0,80,0.00,,,0.00,weatherlink.com 1.10,2013-02-16 18:10:00,
2013-02-16 13:25:00,20.7,17.0,30.08,WNW,291,12.0,19.0,87,0.00,,,0.00,weatherlink.com 1.10,2013-02-16 18:25:00,
2013-02-16 13:41:00,19.7,17.0,30.08,WNW,302,11.0,17.0,89,0.00,,,0.00,weatherlink.com 1.10,2013-02-16 18:41:00,
2013-02-16 13:55:00,20.5,17.0,30.08,WNW,293,8.0,18.0,86,0.00,,,0.00,weatherlink.com 1.10,2013-02-16 18:55:00,
2013-02-16 14:11:00,21.4,17.0,30.08,NW,304,15.0,17.0,83,0.00,,,0.00,weatherlink.com 1.10,2013-02-16 19:11:00,
2013-02-16 14:25:00,21.0,16.0,30.08,WNW,289,11.0,21.0,80,0.00,,,0.00,weatherlink.com 1.10,2013-02-16 19:25:00,
2013-02-16 14:40:00,20.1,17.0,30.08,WNW,301,14.0,18.0,86,0.00,,,0.00,weatherlink.com 1.10,2013-02-16 19:40:00,
2013-02-16 14:55:00,20.0,17.0,30.08,WNW,294,11.0,17.0,86,0.00,,,0.00,weatherlink.com 1.10,2013-02-16 19:55:00,
2013-02-16 15:10:00,19.6,15.0,30.08,NW,311,19.0,21.0,81,0.00,,,0.00,weatherlink.com 1.10,2013-02-16 20:10:00,
2013-02-16 15:25:00,19.9,15.0,30.08,WNW,299,12.0,17.0,80,0.00,,,0.00,weatherlink.com 1.10,2013-02-16 20:25:00,
2013-02-16 15:40:00,19.8,13.0,30.09,NW,307,15.0,23.0,76,0.00,,,0.00,weatherlink.com 1.10,2013-02-16 20:40:00,
2013-02-16 15:55:00,19.6,12.0,30.09,NW,324,11.0,18.0,73,0.00,,,0.00,weatherlink.com 1.10,2013-02-16 20:55:00,
2013-02-16 16:11:00,19.6,13.0,30.09,NW,306,13.0,18.0,75,0.00,,,0.00,weatherlink.com 1.10,2013-02-16 21:11:00,
2013-02-16 16:25:00,19.3,12.0,30.10,WNW,301,16.0,17.0,73,0.00,,,0.00,weatherlink.com 1.10,2013-02-16 21:25:00,
2013-02-16 16:41:00,19.4,10.0,30.10,NW,316,11.0,20.0,67,0.00,,,0.00,weatherlink.com 1.10,2013-02-16 21:41:00,
2013-02-16 16:56:00,19.0,10.0,30.10,NW,316,14.0,21.0,68,0.00,,,0.00,weatherlink.com 1.10,2013-02-16 21:56:00,
2013-02-16 17:11:00,18.9,7.0,30.11,NW,310,15.0,21.0,61,0.00,,,0.00,weatherlink.com 1.10,2013-02-16 22:11:00,
2013-02-16 17:26:00,18.7,7.0,30.11,NW,315,16.0,21.0,61,0.00,,,0.00,weatherlink.com 1.10,2013-02-16 22:26:00,
2013-02-16 17:41:00,18.7,8.0,30.11,WNW,296,10.0,14.0,64,0.00,,,0.00,weatherlink.com 1.10,2013-02-16 22:41:00,
2013-02-16 17:56:00,18.4,9.0,30.11,NW,304,12.0,15.0,67,0.00,,,0.00,weatherlink.com 1.10,2013-02-16 22:56:00,
2013-02-16 18:11:00,17.5,9.0,30.12,NW,304,9.0,15.0,70,0.00,,,0.00,weatherlink.com 1.10,2013-02-16 23:11:00,
2013-02-16 18:26:00,17.1,10.0,30.12,WNW,293,7.0,14.0,73,0.00,,,0.00,weatherlink.com 1.10,2013-02-16 23:26:00,
2013-02-16 18:41:00,17.1,10.0,30.13,WNW,296,5.0,13.0,74,0.00,,,0.00,weatherlink.com 1.10,2013-02-16 23:41:00,
2013-02-16 18:56:00,17.1,11.0,30.13,NW,311,7.0,10.0,77,0.00,,,0.00,weatherlink.com 1.10,2013-02-16 23:56:00,
2013-02-16 19:11:00,16.6,12.0,30.14,NW,315,8.0,14.0,81,0.00,,,0.00,weatherlink.com 1.10,2013-02-17 00:11:00,
2013-02-16 19:26:00,16.6,12.0,30.14,WNW,292,3.0,10.0,82,0.00,,,0.00,weatherlink.com 1.10,2013-02-17 00:26:00,
2013-02-16 19:41:00,15.8,12.0,30.14,WNW,300,4.0,5.0,83,0.00,,,0.00,weatherlink.com 1.10,2013-02-17 00:41:00,
2013-02-16 19:56:00,15.4,11.0,30.14,WNW,300,0.0,2.0,83,0.00,,,0.00,weatherlink.com 1.10,2013-02-17 00:56:00,
2013-02-16 20:11:00,15.3,11.0,30.14,WNW,283,0.0,5.0,82,0.00,,,0.00,weatherlink.com 1.10,2013-02-17 01:11:00,
2013-02-16 20:26:00,15.3,10.0,30.14,WNW,302,0.0,6.0,80,0.00,,,0.00,weatherlink.com 1.10,2013-02-17 01:26:00,
2013-02-16 20:41:00,15.3,10.0,30.14,WNW,302,1.0,4.0,80,0.00,,,0.00,weatherlink.com 1.10,2013-02-17 01:41:00,
2013-02-16 20:56:00,15.0,10.0,30.13,WSW,252,1.0,4.0,81,0.00,,,0.00,weatherlink.com 1.10,2013-02-17 01:56:00,
2013-02-16 21:11:00,14.7,10.0,30.14,WNW,295,2.0,3.0,82,0.00,,,0.00,weatherlink.com 1.10,2013-02-17 02:11:00,
2013-02-16 21:26:00,14.1,10.0,30.14,WNW,295,0.0,3.0,83,0.00,,,0.00,weatherlink.com 1.10,2013-02-17 02:26:00,
2013-02-16 21:41:00,13.7,10.0,30.14,WNW,295,1.0,1.0,85,0.00,,,0.00,weatherlink.com 1.10,2013-02-17 02:41:00,
2013-02-16 21:56:00,13.6,10.0,30.14,WNW,295,2.0,3.0,85,0.00,,,0.00,weatherlink.com 1.10,2013-02-17 02:56:00,
2013-02-16 22:11:00,13.5,10.0,30.14,WNW,295,0.0,4.0,85,0.00,,,0.00,weatherlink.com 1.10,2013-02-17 03:11:00,
2013-02-16 22:26:00,13.0,9.0,30.15,WNW,295,0.0,0.0,85,0.00,,,0.00,weatherlink.com 1.10,2013-02-17 03:26:00,
2013-02-16 22:41:00,12.9,10.0,30.15,WNW,295,2.0,4.0,87,0.00,,,0.00,weatherlink.com 1.10,2013-02-17 03:41:00,
2013-02-16 22:56:00,13.3,10.0,30.15,WNW,295,1.0,4.0,87,0.00,,,0.00,weatherlink.com 1.10,2013-02-17 03:56:00,
2013-02-16 23:11:00,13.4,10.0,30.15,WNW,295,2.0,3.0,87,0.00,,,0.00,weatherlink.com 1.10,2013-02-17 04:11:00,
2013-02-16 23:26:00,13.4,11.0,30.14,WNW,295,0.0,3.0,88,0.00,,,0.00,weatherlink.com 1.10,2013-02-17 04:26:00,
2013-02-16 23:41:00,13.4,11.0,30.14,WNW,295,0.0,1.0,88,0.00,,,0.00,weatherlink.com 1.10,2013-02-17 04:41:00,
2013-02-16 23:56:00,13.5,11.0,30.14,West,265,0.0,4.0,88,0.00,,,0.00,weatherlink.com 1.10,2013-02-17 04:56:00,